Portada
METAR-TAF:

METAR-TAF

Aeroports :

Tsushima, Japó

latitud: 34-17N, longitud: 129-20E, altitud: 63 m

Observació

L'informe es va fer fa 3 hores i 42 minuts, a les 11:00 UTC
Vent 2 kt amb direcció variable
Temperatura 26°C
Humitat 94%
Pressió 1013 hPa
Visibilitat 10 km o més
Escasses núvols a una alçada de 200 ft
Núvols disperses a una alçada de 18000 ft
Cel ennuvolat

METAR: RJDT 161100Z VRB02KT 9999 FEW002 SCT180 BKN/// 26/25 Q1013

Hora: 23:42 (14:42 UTC)


TAF: manca

Observacions i pronòstics meteorològics de més de 4000 aeroports (METAR i TAF).

Les estacions disponibles són els punts grocs i vermells al mapa.

Posi el ratolí al punt desitjat per veure el nom de l'estació.

Feu clic per veure les observacions i els pronòstics meteorològics.

Per canviar el mapa: feu clic els botons verds amb una creu de color negre per apropar; al botó verd amb un guió per allunyar la imatge; o en les fletxes verdes per a mapes adjacents.


METAR-TAF: